Погода Водзинекна 2 недели

Лодзинское воеводство, Польша

24 мая-06 июня
  • 24мая
    Сегодня
    +12°
    +28°
    Практически безоблачно
    ВремяПогодаТемператураВлажностьДавлениеВетер, м/сВероятность осадков
    02:00Практически безоблачно+14°C96 %745 мм0.8 м/с31 %
    05:00Облачно с прояснениями+13°C100 %746 мм0.7 м/с19 %
    08:00Ясно и безоблачно+17°C85 %746 мм0.8 м/с3 %
    11:00Ясно и безоблачно+22°C67 %747 мм2.5 м/с1 %
    14:00Практически безоблачно+24°C62 %746 мм3.4 м/с7 %
    17:00Небольшая облачность, возможен дождь с грозой+22°C72 %746 мм4.0 м/с37 %
    20:00Ясно и безоблачно+20°C83 %745 мм1.6 м/с20 %
    23:00Ясно и безоблачно+16°C89 %746 мм1.4 м/с1 %
  • 25мая
    Суббота
    +12°
    +26°
    Небольшая облачность
    ВремяПогодаТемператураВлажностьДавлениеВетер, м/сВероятность осадков
    02:00Ясно и безоблачно+14°C92 %746 мм1.4 м/с1 %
    05:00Небольшая облачность+12°C96 %746 мм1.0 м/с2 %
    08:00Практически безоблачно+18°C81 %747 мм1.6 м/с1 %
    11:00Небольшая облачность+22°C60 %747 мм2.1 м/с16 %
    14:00Небольшая облачность+22°C55 %746 мм2.3 м/с22 %
    17:00Небольшая облачность, возможен дождь с грозой+22°C67 %746 мм2.9 м/с51 %
    20:00Облачно с прояснениями+20°C83 %746 мм1.8 м/с36 %
    23:00Ясно и безоблачно+16°C92 %746 мм1.3 м/с4 %
  • 26мая
    Воскресенье
    +11°
    +25°
    Практически безоблачно
    ВремяПогодаТемператураВлажностьДавлениеВетер, м/сВероятность осадков
    02:00Ясно и безоблачно+14°C93 %746 мм0.8 м/с2 %
    05:00Небольшая облачность+12°C100 %746 мм0.8 м/с2 %
    08:00Ясно и безоблачно+18°C81 %747 мм1.1 м/с2 %
    11:00Ясно и безоблачно+24°C55 %747 мм2.4 м/с4 %
    14:00Практически безоблачно+25°C42 %747 мм3.1 м/с23 %
    17:00Практически безоблачно+22°C58 %747 мм2.5 м/с42 %
    20:00Практически безоблачно+20°C67 %747 мм2.5 м/с20 %
    23:00Практически безоблачно+16°C84 %747 мм1.3 м/с2 %
  • 27мая
    Понедельник
    +11°
    +26°
    Ясно и безоблачно
    ВремяПогодаТемператураВлажностьДавлениеВетер, м/сВероятность осадков
    02:00Ясно и безоблачно+13°C92 %747 мм1.3 м/с2 %
    05:00Ясно и безоблачно+12°C92 %747 мм1.3 м/с2 %
    08:00Ясно и безоблачно+18°C74 %748 мм1.8 м/с2 %
    11:00Ясно и безоблачно+24°C47 %748 мм2.9 м/с4 %
    14:00Ясно и безоблачно+25°C28 %747 мм4.3 м/с9 %
    17:00Ясно и безоблачно+24°C29 %746 мм4.1 м/с8 %
    20:00Ясно и безоблачно+21°C49 %746 мм2.8 м/с5 %
    23:00Ясно и безоблачно+16°C49 %746 мм2.3 м/с2 %
  • 28мая
    Вторник
    +13°
    +25°
    Небольшая облачность
    ВремяПогодаТемператураВлажностьДавлениеВетер, м/сВероятность осадков
    02:00Ясно и безоблачно+14°C60 %746 мм1.8 м/с2 %
    05:00Ясно и безоблачно+12°C67 %746 мм1.4 м/с2 %
    08:00Ясно и безоблачно+18°C58 %746 мм2.6 м/с2 %
    11:00Ясно и безоблачно+23°C30 %746 мм4.6 м/с2 %
    14:00Небольшая облачность+24°C29 %745 мм4.5 м/с2 %
    17:00Облачно с прояснениями+24°C34 %745 мм3.5 м/с2 %
    20:00Практически безоблачно+22°C60 %744 мм2.2 м/с4 %
    23:00Ясно и безоблачно+17°C65 %744 мм1.5 м/с2 %
Мы используем cookies
Соглашаюсь